sensor_id;sensor_type;location;lat;lon;timestamp;P1;durP1;ratioP1;P2;durP2;ratioP2
63653;SDS011;49809;47.418;19.080;2022-09-24T00:01:47;8.65;;;4.22;;
63653;SDS011;49809;47.418;19.080;2022-09-24T00:04:50;7.68;;;3.70;;
63653;SDS011;49809;47.418;19.080;2022-09-24T00:07:53;3.80;;;3.05;;
63653;SDS011;49809;47.418;19.080;2022-09-24T00:11:17;4.82;;;3.00;;
63653;SDS011;49809;47.418;19.080;2022-09-24T00:14:22;5.18;;;3.47;;
63653;SDS011;49809;47.418;19.080;2022-09-24T00:17:26;7.47;;;2.72;;
63653;SDS011;49809;47.418;19.080;2022-09-24T00:20:29;4.40;;;2.78;;
63653;SDS011;49809;47.418;19.080;2022-09-24T00:23:34;8.52;;;3.15;;
63653;SDS011;49809;47.418;19.080;2022-09-24T00:26:37;4.57;;;2.85;;
63653;SDS011;49809;47.418;19.080;2022-09-24T00:29:51;10.80;;;2.80;;
63653;SDS011;49809;47.418;19.080;2022-09-24T00:32:53;5.22;;;2.75;;
63653;SDS011;49809;47.418;19.080;2022-09-24T00:36:03;5.60;;;2.78;;
63653;SDS011;49809;47.418;19.080;2022-09-24T00:39:09;4.60;;;2.53;;
63653;SDS011;49809;47.418;19.080;2022-09-24T00:42:12;3.97;;;2.22;;
63653;SDS011;49809;47.418;19.080;2022-09-24T00:45:15;3.95;;;2.42;;
63653;SDS011;49809;47.418;19.080;2022-09-24T00:48:20;6.75;;;2.60;;
63653;SDS011;49809;47.418;19.080;2022-09-24T00:51:24;3.00;;;2.10;;
63653;SDS011;49809;47.418;19.080;2022-09-24T00:54:29;3.28;;;2.58;;
63653;SDS011;49809;47.418;19.080;2022-09-24T00:57:32;3.47;;;2.22;;
63653;SDS011;49809;47.418;19.080;2022-09-24T01:00:37;5.37;;;2.08;;
63653;SDS011;49809;47.418;19.080;2022-09-24T01:03:44;4.65;;;2.10;;
63653;SDS011;49809;47.418;19.080;2022-09-24T01:06:54;4.62;;;2.58;;
63653;SDS011;49809;47.418;19.080;2022-09-24T01:09:57;3.53;;;2.08;;
63653;SDS011;49809;47.418;19.080;2022-09-24T01:17:55;4.15;;;2.35;;
63653;SDS011;49809;47.418;19.080;2022-09-24T01:30:46;2.30;;;1.95;;
63653;SDS011;49809;47.418;19.080;2022-09-24T01:34:00;3.17;;;2.12;;
63653;SDS011;49809;47.418;19.080;2022-09-24T01:37:08;4.87;;;2.65;;
63653;SDS011;49809;47.418;19.080;2022-09-24T01:40:16;2.97;;;2.03;;
63653;SDS011;49809;47.418;19.080;2022-09-24T01:43:23;2.83;;;1.87;;
63653;SDS011;49809;47.418;19.080;2022-09-24T01:46:31;2.90;;;2.12;;
63653;SDS011;49809;47.418;19.080;2022-09-24T01:49:54;6.03;;;2.53;;
63653;SDS011;49809;47.418;19.080;2022-09-24T01:53:01;2.85;;;2.10;;
63653;SDS011;49809;47.418;19.080;2022-09-24T01:56:15;2.85;;;2.12;;
63653;SDS011;49809;47.418;19.080;2022-09-24T01:59:30;3.05;;;2.15;;
63653;SDS011;49809;47.418;19.080;2022-09-24T02:02:48;3.83;;;2.20;;
63653;SDS011;49809;47.418;19.080;2022-09-24T02:06:07;6.28;;;2.45;;
63653;SDS011;49809;47.418;19.080;2022-09-24T02:09:34;5.53;;;2.05;;
63653;SDS011;49809;47.418;19.080;2022-09-24T02:12:39;2.78;;;2.05;;
63653;SDS011;49809;47.418;19.080;2022-09-24T02:15:47;4.93;;;3.30;;
63653;SDS011;49809;47.418;19.080;2022-09-24T02:18:55;4.78;;;2.35;;
63653;SDS011;49809;47.418;19.080;2022-09-24T02:22:07;4.35;;;2.55;;
63653;SDS011;49809;47.418;19.080;2022-09-24T02:25:13;6.55;;;2.65;;
63653;SDS011;49809;47.418;19.080;2022-09-24T02:28:27;3.87;;;2.83;;
63653;SDS011;49809;47.418;19.080;2022-09-24T02:31:31;7.18;;;3.00;;
63653;SDS011;49809;47.418;19.080;2022-09-24T02:34:43;6.55;;;3.17;;
63653;SDS011;49809;47.418;19.080;2022-09-24T02:37:50;3.60;;;2.25;;
63653;SDS011;49809;47.418;19.080;2022-09-24T02:40:55;4.72;;;2.50;;
63653;SDS011;49809;47.418;19.080;2022-09-24T02:43:59;4.95;;;3.20;;
63653;SDS011;49809;47.418;19.080;2022-09-24T02:47:02;5.50;;;2.53;;
63653;SDS011;49809;47.418;19.080;2022-09-24T02:50:08;7.32;;;3.22;;
63653;SDS011;49809;47.418;19.080;2022-09-24T02:53:13;7.80;;;3.15;;
63653;SDS011;49809;47.418;19.080;2022-09-24T02:56:18;5.15;;;2.83;;
63653;SDS011;49809;47.418;19.080;2022-09-24T02:59:20;4.12;;;2.30;;
63653;SDS011;49809;47.418;19.080;2022-09-24T03:02:24;6.93;;;3.53;;
63653;SDS011;49809;47.418;19.080;2022-09-24T03:05:26;14.95;;;3.72;;
63653;SDS011;49809;47.418;19.080;2022-09-24T03:08:35;8.50;;;3.22;;
63653;SDS011;49809;47.418;19.080;2022-09-24T03:11:37;6.12;;;3.25;;
63653;SDS011;49809;47.418;19.080;2022-09-24T03:14:43;6.40;;;2.53;;
63653;SDS011;49809;47.418;19.080;2022-09-24T03:17:52;6.30;;;3.45;;
63653;SDS011;49809;47.418;19.080;2022-09-24T03:21:00;4.55;;;2.78;;
63653;SDS011;49809;47.418;19.080;2022-09-24T03:24:06;14.87;;;3.47;;
63653;SDS011;49809;47.418;19.080;2022-09-24T03:27:10;5.45;;;2.83;;
63653;SDS011;49809;47.418;19.080;2022-09-24T03:30:13;5.28;;;2.42;;
63653;SDS011;49809;47.418;19.080;2022-09-24T03:33:39;4.30;;;2.17;;
63653;SDS011;49809;47.418;19.080;2022-09-24T03:36:46;2.28;;;2.08;;
63653;SDS011;49809;47.418;19.080;2022-09-24T03:39:49;3.15;;;2.20;;
63653;SDS011;49809;47.418;19.080;2022-09-24T03:42:52;4.72;;;2.70;;
63653;SDS011;49809;47.418;19.080;2022-09-24T03:45:55;2.85;;;1.95;;
63653;SDS011;49809;47.418;19.080;2022-09-24T03:48:58;4.55;;;2.90;;
63653;SDS011;49809;47.418;19.080;2022-09-24T03:52:02;4.07;;;2.58;;
63653;SDS011;49809;47.418;19.080;2022-09-24T03:55:04;3.12;;;2.00;;
63653;SDS011;49809;47.418;19.080;2022-09-24T03:58:11;3.92;;;2.67;;
63653;SDS011;49809;47.418;19.080;2022-09-24T04:01:35;4.18;;;2.20;;
63653;SDS011;49809;47.418;19.080;2022-09-24T04:04:42;3.67;;;2.28;;
63653;SDS011;49809;47.418;19.080;2022-09-24T04:07:44;3.75;;;2.22;;
63653;SDS011;49809;47.418;19.080;2022-09-24T04:10:50;4.43;;;2.42;;
63653;SDS011;49809;47.418;19.080;2022-09-24T04:13:58;6.15;;;3.47;;
63653;SDS011;49809;47.418;19.080;2022-09-24T04:17:01;3.28;;;2.92;;
63653;SDS011;49809;47.418;19.080;2022-09-24T04:20:05;3.90;;;2.62;;
63653;SDS011;49809;47.418;19.080;2022-09-24T04:23:11;7.32;;;3.70;;
63653;SDS011;49809;47.418;19.080;2022-09-24T04:26:19;3.50;;;2.85;;
63653;SDS011;49809;47.418;19.080;2022-09-24T04:29:22;4.35;;;2.55;;
63653;SDS011;49809;47.418;19.080;2022-09-24T04:32:25;4.75;;;3.00;;
63653;SDS011;49809;47.418;19.080;2022-09-24T04:35:29;6.70;;;3.80;;
63653;SDS011;49809;47.418;19.080;2022-09-24T04:38:33;5.70;;;2.83;;
63653;SDS011;49809;47.418;19.080;2022-09-24T04:41:38;4.62;;;2.85;;
63653;SDS011;49809;47.418;19.080;2022-09-24T04:44:43;4.07;;;2.80;;
63653;SDS011;49809;47.418;19.080;2022-09-24T04:48:00;4.00;;;2.50;;
63653;SDS011;49809;47.418;19.080;2022-09-24T04:51:05;6.37;;;2.97;;
63653;SDS011;49809;47.418;19.080;2022-09-24T04:54:12;6.68;;;3.25;;
63653;SDS011;49809;47.418;19.080;2022-09-24T04:57:15;5.87;;;3.72;;
63653;SDS011;49809;47.418;19.080;2022-09-24T05:00:19;7.22;;;3.50;;
63653;SDS011;49809;47.418;19.080;2022-09-24T05:03:22;4.07;;;2.37;;
63653;SDS011;49809;47.418;19.080;2022-09-24T05:06:30;5.32;;;4.00;;
63653;SDS011;49809;47.418;19.080;2022-09-24T05:09:32;6.68;;;3.78;;
63653;SDS011;49809;47.418;19.080;2022-09-24T05:12:38;9.13;;;3.83;;
63653;SDS011;49809;47.418;19.080;2022-09-24T05:15:44;7.00;;;3.45;;
63653;SDS011;49809;47.418;19.080;2022-09-24T05:19:04;6.53;;;4.05;;
63653;SDS011;49809;47.418;19.080;2022-09-24T05:22:07;6.10;;;3.90;;
63653;SDS011;49809;47.418;19.080;2022-09-24T05:25:16;19.00;;;5.20;;
63653;SDS011;49809;47.418;19.080;2022-09-24T05:28:22;7.37;;;4.57;;
63653;SDS011;49809;47.418;19.080;2022-09-24T05:31:27;10.80;;;5.50;;
63653;SDS011;49809;47.418;19.080;2022-09-24T05:34:36;11.20;;;4.82;;
63653;SDS011;49809;47.418;19.080;2022-09-24T05:37:41;8.30;;;5.28;;
63653;SDS011;49809;47.418;19.080;2022-09-24T05:40:46;9.48;;;5.32;;
63653;SDS011;49809;47.418;19.080;2022-09-24T05:43:52;10.38;;;6.30;;
63653;SDS011;49809;47.418;19.080;2022-09-24T05:46:54;9.52;;;5.25;;
63653;SDS011;49809;47.418;19.080;2022-09-24T05:49:58;11.20;;;5.70;;
63653;SDS011;49809;47.418;19.080;2022-09-24T05:53:00;9.38;;;5.30;;
63653;SDS011;49809;47.418;19.080;2022-09-24T05:56:10;9.60;;;5.05;;
63653;SDS011;49809;47.418;19.080;2022-09-24T05:59:12;12.30;;;5.40;;
63653;SDS011;49809;47.418;19.080;2022-09-24T06:02:18;14.52;;;6.43;;
63653;SDS011;49809;47.418;19.080;2022-09-24T06:05:23;10.77;;;5.72;;
63653;SDS011;49809;47.418;19.080;2022-09-24T06:08:27;11.60;;;5.70;;
63653;SDS011;49809;47.418;19.080;2022-09-24T06:11:54;8.95;;;5.72;;
63653;SDS011;49809;47.418;19.080;2022-09-24T06:15:00;9.88;;;5.85;;
63653;SDS011;49809;47.418;19.080;2022-09-24T06:18:04;12.18;;;7.03;;
63653;SDS011;49809;47.418;19.080;2022-09-24T06:21:10;10.10;;;5.68;;
63653;SDS011;49809;47.418;19.080;2022-09-24T06:24:18;15.07;;;5.93;;
63653;SDS011;49809;47.418;19.080;2022-09-24T06:27:21;9.73;;;5.70;;
63653;SDS011;49809;47.418;19.080;2022-09-24T06:30:29;12.93;;;5.45;;
63653;SDS011;49809;47.418;19.080;2022-09-24T06:33:34;10.32;;;6.05;;
63653;SDS011;49809;47.418;19.080;2022-09-24T06:36:42;9.75;;;5.65;;
63653;SDS011;49809;47.418;19.080;2022-09-24T06:39:44;12.13;;;5.25;;
63653;SDS011;49809;47.418;19.080;2022-09-24T06:42:52;11.70;;;6.43;;
63653;SDS011;49809;47.418;19.080;2022-09-24T06:45:56;13.93;;;6.03;;
63653;SDS011;49809;47.418;19.080;2022-09-24T06:49:00;9.73;;;5.75;;
63653;SDS011;49809;47.418;19.080;2022-09-24T06:52:03;11.95;;;6.35;;
63653;SDS011;49809;47.418;19.080;2022-09-24T06:55:06;11.35;;;6.32;;
63653;SDS011;49809;47.418;19.080;2022-09-24T06:58:14;10.48;;;5.57;;
63653;SDS011;49809;47.418;19.080;2022-09-24T07:01:18;11.20;;;6.22;;
63653;SDS011;49809;47.418;19.080;2022-09-24T07:04:23;12.00;;;6.22;;
63653;SDS011;49809;47.418;19.080;2022-09-24T07:07:29;10.38;;;6.82;;
63653;SDS011;49809;47.418;19.080;2022-09-24T07:10:35;12.85;;;7.03;;
63653;SDS011;49809;47.418;19.080;2022-09-24T07:13:43;11.45;;;6.68;;
63653;SDS011;49809;47.418;19.080;2022-09-24T07:16:48;11.80;;;6.22;;
63653;SDS011;49809;47.418;19.080;2022-09-24T07:20:01;12.95;;;7.25;;
63653;SDS011;49809;47.418;19.080;2022-09-24T07:23:08;15.98;;;7.57;;
63653;SDS011;49809;47.418;19.080;2022-09-24T07:26:13;18.25;;;7.43;;
63653;SDS011;49809;47.418;19.080;2022-09-24T07:29:15;12.68;;;6.68;;
63653;SDS011;49809;47.418;19.080;2022-09-24T07:32:19;14.00;;;7.50;;
63653;SDS011;49809;47.418;19.080;2022-09-24T07:35:22;14.13;;;7.65;;
63653;SDS011;49809;47.418;19.080;2022-09-24T07:38:25;15.75;;;7.32;;
63653;SDS011;49809;47.418;19.080;2022-09-24T07:41:28;13.88;;;7.45;;
63653;SDS011;49809;47.418;19.080;2022-09-24T07:44:37;14.90;;;6.93;;
63653;SDS011;49809;47.418;19.080;2022-09-24T07:48:00;11.82;;;7.60;;
63653;SDS011;49809;47.418;19.080;2022-09-24T07:51:10;14.45;;;7.53;;
63653;SDS011;49809;47.418;19.080;2022-09-24T07:54:13;12.30;;;7.55;;
63653;SDS011;49809;47.418;19.080;2022-09-24T07:57:23;14.13;;;8.02;;
63653;SDS011;49809;47.418;19.080;2022-09-24T08:00:28;13.32;;;7.28;;
63653;SDS011;49809;47.418;19.080;2022-09-24T08:03:35;12.70;;;6.80;;
63653;SDS011;49809;47.418;19.080;2022-09-24T08:06:39;14.32;;;6.93;;
63653;SDS011;49809;47.418;19.080;2022-09-24T08:09:52;12.85;;;7.35;;
63653;SDS011;49809;47.418;19.080;2022-09-24T08:12:54;13.52;;;6.62;;
63653;SDS011;49809;47.418;19.080;2022-09-24T08:16:01;12.30;;;6.97;;
63653;SDS011;49809;47.418;19.080;2022-09-24T08:19:04;11.10;;;6.90;;
63653;SDS011;49809;47.418;19.080;2022-09-24T08:22:09;13.50;;;7.43;;
63653;SDS011;49809;47.418;19.080;2022-09-24T08:25:37;12.35;;;7.07;;
63653;SDS011;49809;47.418;19.080;2022-09-24T08:28:40;14.30;;;6.87;;
63653;SDS011;49809;47.418;19.080;2022-09-24T08:31:47;11.60;;;6.55;;
63653;SDS011;49809;47.418;19.080;2022-09-24T08:34:50;12.15;;;6.60;;
63653;SDS011;49809;47.418;19.080;2022-09-24T08:37:57;10.70;;;6.18;;
63653;SDS011;49809;47.418;19.080;2022-09-24T08:41:05;10.27;;;5.95;;
63653;SDS011;49809;47.418;19.080;2022-09-24T08:50:52;10.30;;;6.03;;
63653;SDS011;49809;47.418;19.080;2022-09-24T08:54:03;11.75;;;6.20;;
63653;SDS011;49809;47.418;19.080;2022-09-24T08:57:11;8.80;;;5.55;;
63653;SDS011;49809;47.418;19.080;2022-09-24T09:00:21;11.23;;;5.55;;
63653;SDS011;49809;47.418;19.080;2022-09-24T09:13:30;8.55;;;5.00;;
63653;SDS011;49809;47.418;19.080;2022-09-24T09:23:49;4.47;;;3.30;;
63653;SDS011;49809;47.418;19.080;2022-09-24T09:26:56;4.97;;;3.10;;
63653;SDS011;49809;47.418;19.080;2022-09-24T09:30:05;5.75;;;3.17;;
63653;SDS011;49809;47.418;19.080;2022-09-24T09:37:05;3.55;;;2.60;;
63653;SDS011;49809;47.418;19.080;2022-09-24T09:40:44;3.17;;;2.30;;
63653;SDS011;49809;47.418;19.080;2022-09-24T09:44:18;3.83;;;2.45;;
63653;SDS011;49809;47.418;19.080;2022-09-24T09:50:43;3.75;;;2.50;;
63653;SDS011;49809;47.418;19.080;2022-09-24T09:53:53;3.12;;;2.20;;
63653;SDS011;49809;47.418;19.080;2022-09-24T09:57:00;2.72;;;1.95;;
63653;SDS011;49809;47.418;19.080;2022-09-24T10:00:05;2.95;;;1.87;;
63653;SDS011;49809;47.418;19.080;2022-09-24T10:03:25;1.67;;;1.42;;
63653;SDS011;49809;47.418;19.080;2022-09-24T10:06:33;1.92;;;1.40;;
63653;SDS011;49809;47.418;19.080;2022-09-24T10:09:38;1.80;;;1.52;;
63653;SDS011;49809;47.418;19.080;2022-09-24T10:12:44;2.28;;;1.50;;
63653;SDS011;49809;47.418;19.080;2022-09-24T10:15:53;1.52;;;1.40;;
63653;SDS011;49809;47.418;19.080;2022-09-24T10:18:58;1.90;;;1.60;;
63653;SDS011;49809;47.418;19.080;2022-09-24T10:25:26;1.87;;;1.50;;
63653;SDS011;49809;47.418;19.080;2022-09-24T10:28:44;1.98;;;1.20;;
63653;SDS011;49809;47.418;19.080;2022-09-24T10:32:18;6.43;;;1.75;;
63653;SDS011;49809;47.418;19.080;2022-09-24T10:38:36;1.60;;;1.20;;
63653;SDS011;49809;47.418;19.080;2022-09-24T10:41:46;2.33;;;1.40;;
63653;SDS011;49809;47.418;19.080;2022-09-24T10:44:49;2.28;;;1.40;;
63653;SDS011;49809;47.418;19.080;2022-09-24T10:48:33;1.80;;;1.27;;
63653;SDS011;49809;47.418;19.080;2022-09-24T10:51:38;1.65;;;1.20;;
63653;SDS011;49809;47.418;19.080;2022-09-24T11:01:47;1.87;;;1.30;;
63653;SDS011;49809;47.418;19.080;2022-09-24T11:05:22;1.52;;;1.30;;
63653;SDS011;49809;47.418;19.080;2022-09-24T11:08:29;1.30;;;1.17;;
63653;SDS011;49809;47.418;19.080;2022-09-24T11:11:54;1.55;;;1.40;;
63653;SDS011;49809;47.418;19.080;2022-09-24T11:31:58;1.67;;;1.20;;
63653;SDS011;49809;47.418;19.080;2022-09-24T11:55:46;4.28;;;2.30;;
63653;SDS011;49809;47.418;19.080;2022-09-24T11:58:56;1.58;;;1.25;;
63653;SDS011;49809;47.418;19.080;2022-09-24T12:02:24;2.80;;;1.45;;
63653;SDS011;49809;47.418;19.080;2022-09-24T12:05:32;1.95;;;1.27;;
63653;SDS011;49809;47.418;19.080;2022-09-24T12:08:41;1.62;;;1.30;;
63653;SDS011;49809;47.418;19.080;2022-09-24T12:15:17;4.60;;;1.50;;
63653;SDS011;49809;47.418;19.080;2022-09-24T12:18:25;1.77;;;1.30;;
63653;SDS011;49809;47.418;19.080;2022-09-24T12:24:52;1.65;;;1.30;;
63653;SDS011;49809;47.418;19.080;2022-09-24T12:31:03;1.52;;;1.30;;
63653;SDS011;49809;47.418;19.080;2022-09-24T12:38:19;2.05;;;1.25;;
63653;SDS011;49809;47.418;19.080;2022-09-24T12:41:31;1.60;;;1.35;;
63653;SDS011;49809;47.418;19.080;2022-09-24T12:44:39;1.70;;;1.20;;
63653;SDS011;49809;47.418;19.080;2022-09-24T12:48:01;1.83;;;1.30;;
63653;SDS011;49809;47.418;19.080;2022-09-24T12:51:07;1.67;;;1.20;;
63653;SDS011;49809;47.418;19.080;2022-09-24T12:54:19;1.80;;;1.20;;
63653;SDS011;49809;47.418;19.080;2022-09-24T12:57:40;1.80;;;1.12;;
63653;SDS011;49809;47.418;19.080;2022-09-24T13:00:50;3.92;;;2.40;;
63653;SDS011;49809;47.418;19.080;2022-09-24T13:10:34;1.67;;;1.27;;
63653;SDS011;49809;47.418;19.080;2022-09-24T13:13:44;1.27;;;1.17;;
63653;SDS011;49809;47.418;19.080;2022-09-24T13:16:48;2.30;;;1.33;;
63653;SDS011;49809;47.418;19.080;2022-09-24T13:19:57;3.25;;;1.45;;
63653;SDS011;49809;47.418;19.080;2022-09-24T13:23:11;3.72;;;1.45;;
63653;SDS011;49809;47.418;19.080;2022-09-24T13:29:24;1.52;;;1.12;;
63653;SDS011;49809;47.418;19.080;2022-09-24T13:32:28;1.92;;;1.30;;
63653;SDS011;49809;47.418;19.080;2022-09-24T13:35:46;2.92;;;1.40;;
63653;SDS011;49809;47.418;19.080;2022-09-24T13:45:42;1.52;;;1.15;;
63653;SDS011;49809;47.418;19.080;2022-09-24T13:48:54;3.08;;;1.40;;
63653;SDS011;49809;47.418;19.080;2022-09-24T13:52:06;2.75;;;1.55;;
63653;SDS011;49809;47.418;19.080;2022-09-24T13:55:23;2.15;;;1.50;;
63653;SDS011;49809;47.418;19.080;2022-09-24T13:58:33;1.67;;;1.48;;
63653;SDS011;49809;47.418;19.080;2022-09-24T14:01:42;1.80;;;1.40;;
63653;SDS011;49809;47.418;19.080;2022-09-24T14:04:46;3.55;;;1.48;;
63653;SDS011;49809;47.418;19.080;2022-09-24T14:07:55;2.97;;;1.30;;
63653;SDS011;49809;47.418;19.080;2022-09-24T14:11:12;2.40;;;1.40;;
63653;SDS011;49809;47.418;19.080;2022-09-24T14:14:22;1.85;;;1.40;;
63653;SDS011;49809;47.418;19.080;2022-09-24T14:17:30;2.95;;;1.40;;
63653;SDS011;49809;47.418;19.080;2022-09-24T14:20:33;1.83;;;1.33;;
63653;SDS011;49809;47.418;19.080;2022-09-24T14:23:41;5.78;;;1.95;;
63653;SDS011;49809;47.418;19.080;2022-09-24T14:26:46;2.78;;;1.92;;
63653;SDS011;49809;47.418;19.080;2022-09-24T14:29:54;2.28;;;1.62;;
63653;SDS011;49809;47.418;19.080;2022-09-24T14:33:11;5.57;;;2.87;;
63653;SDS011;49809;47.418;19.080;2022-09-24T14:36:19;3.53;;;2.25;;
63653;SDS011;49809;47.418;19.080;2022-09-24T14:39:29;2.17;;;1.50;;
63653;SDS011;49809;47.418;19.080;2022-09-24T14:42:35;2.92;;;1.98;;
63653;SDS011;49809;47.418;19.080;2022-09-24T14:49:28;3.22;;;1.60;;
63653;SDS011;49809;47.418;19.080;2022-09-24T14:52:34;3.22;;;1.90;;
63653;SDS011;49809;47.418;19.080;2022-09-24T14:55:45;2.40;;;1.90;;
63653;SDS011;49809;47.418;19.080;2022-09-24T14:58:51;2.35;;;1.80;;
63653;SDS011;49809;47.418;19.080;2022-09-24T15:05:36;4.95;;;2.10;;
63653;SDS011;49809;47.418;19.080;2022-09-24T15:08:41;3.25;;;2.40;;
63653;SDS011;49809;47.418;19.080;2022-09-24T15:11:44;5.03;;;2.70;;
63653;SDS011;49809;47.418;19.080;2022-09-24T15:14:56;4.22;;;2.78;;
63653;SDS011;49809;47.418;19.080;2022-09-24T15:18:01;5.03;;;2.90;;
63653;SDS011;49809;47.418;19.080;2022-09-24T15:21:04;4.37;;;2.30;;
63653;SDS011;49809;47.418;19.080;2022-09-24T15:24:09;6.25;;;3.28;;
63653;SDS011;49809;47.418;19.080;2022-09-24T15:27:36;4.45;;;2.65;;
63653;SDS011;49809;47.418;19.080;2022-09-24T15:30:39;4.82;;;2.75;;
63653;SDS011;49809;47.418;19.080;2022-09-24T15:33:44;6.90;;;2.90;;
63653;SDS011;49809;47.418;19.080;2022-09-24T15:36:47;7.97;;;3.42;;
63653;SDS011;49809;47.418;19.080;2022-09-24T15:39:57;6.90;;;3.30;;
63653;SDS011;49809;47.418;19.080;2022-09-24T15:43:18;7.15;;;4.10;;
63653;SDS011;49809;47.418;19.080;2022-09-24T15:46:25;9.88;;;3.72;;
63653;SDS011;49809;47.418;19.080;2022-09-24T15:49:32;9.02;;;4.85;;
63653;SDS011;49809;47.418;19.080;2022-09-24T15:52:43;8.30;;;4.93;;
63653;SDS011;49809;47.418;19.080;2022-09-24T15:56:02;7.80;;;4.50;;
63653;SDS011;49809;47.418;19.080;2022-09-24T15:59:11;5.20;;;3.37;;
63653;SDS011;49809;47.418;19.080;2022-09-24T16:02:22;8.07;;;2.80;;
63653;SDS011;49809;47.418;19.080;2022-09-24T16:05:31;5.12;;;3.17;;
63653;SDS011;49809;47.418;19.080;2022-09-24T16:08:34;8.52;;;3.30;;
63653;SDS011;49809;47.418;19.080;2022-09-24T16:11:39;9.30;;;3.50;;
63653;SDS011;49809;47.418;19.080;2022-09-24T16:14:44;5.57;;;3.70;;
63653;SDS011;49809;47.418;19.080;2022-09-24T16:17:48;4.55;;;3.05;;
63653;SDS011;49809;47.418;19.080;2022-09-24T16:20:51;4.60;;;3.37;;
63653;SDS011;49809;47.418;19.080;2022-09-24T16:23:55;5.55;;;3.40;;
63653;SDS011;49809;47.418;19.080;2022-09-24T16:27:01;7.07;;;3.58;;
63653;SDS011;49809;47.418;19.080;2022-09-24T16:30:05;16.40;;;8.50;;
63653;SDS011;49809;47.418;19.080;2022-09-24T16:33:11;10.32;;;6.53;;
63653;SDS011;49809;47.418;19.080;2022-09-24T16:36:14;12.27;;;7.65;;
63653;SDS011;49809;47.418;19.080;2022-09-24T16:39:19;10.27;;;5.80;;
63653;SDS011;49809;47.418;19.080;2022-09-24T16:42:26;27.95;;;11.30;;
63653;SDS011;49809;47.418;19.080;2022-09-24T16:45:30;23.38;;;9.75;;
63653;SDS011;49809;47.418;19.080;2022-09-24T16:48:33;21.12;;;8.40;;
63653;SDS011;49809;47.418;19.080;2022-09-24T16:51:37;29.58;;;11.48;;
63653;SDS011;49809;47.418;19.080;2022-09-24T16:54:43;18.30;;;8.68;;
63653;SDS011;49809;47.418;19.080;2022-09-24T16:57:46;13.07;;;6.00;;
63653;SDS011;49809;47.418;19.080;2022-09-24T17:00:50;17.45;;;7.75;;
63653;SDS011;49809;47.418;19.080;2022-09-24T17:03:54;10.25;;;5.85;;
63653;SDS011;49809;47.418;19.080;2022-09-24T17:07:00;8.15;;;4.28;;
63653;SDS011;49809;47.418;19.080;2022-09-24T17:10:05;8.10;;;4.18;;
63653;SDS011;49809;47.418;19.080;2022-09-24T17:13:19;7.25;;;4.10;;
63653;SDS011;49809;47.418;19.080;2022-09-24T17:16:25;9.73;;;5.12;;
63653;SDS011;49809;47.418;19.080;2022-09-24T17:19:34;6.97;;;4.35;;
63653;SDS011;49809;47.418;19.080;2022-09-24T17:22:37;7.37;;;4.30;;
63653;SDS011;49809;47.418;19.080;2022-09-24T17:26:12;11.30;;;7.12;;
63653;SDS011;49809;47.418;19.080;2022-09-24T17:29:17;12.80;;;6.82;;
63653;SDS011;49809;47.418;19.080;2022-09-24T17:32:22;13.18;;;7.15;;
63653;SDS011;49809;47.418;19.080;2022-09-24T17:35:27;10.35;;;6.15;;
63653;SDS011;49809;47.418;19.080;2022-09-24T17:38:34;9.90;;;6.53;;
63653;SDS011;49809;47.418;19.080;2022-09-24T17:41:40;14.45;;;7.72;;
63653;SDS011;49809;47.418;19.080;2022-09-24T17:44:44;13.48;;;6.85;;
63653;SDS011;49809;47.418;19.080;2022-09-24T17:47:51;18.12;;;8.27;;
63653;SDS011;49809;47.418;19.080;2022-09-24T17:51:03;15.07;;;6.43;;
63653;SDS011;49809;47.418;19.080;2022-09-24T17:54:12;11.82;;;6.35;;
63653;SDS011;49809;47.418;19.080;2022-09-24T17:57:17;7.22;;;4.65;;
63653;SDS011;49809;47.418;19.080;2022-09-24T18:00:47;6.20;;;3.33;;
63653;SDS011;49809;47.418;19.080;2022-09-24T18:04:14;9.00;;;3.10;;
63653;SDS011;49809;47.418;19.080;2022-09-24T18:07:20;4.75;;;2.95;;
63653;SDS011;49809;47.418;19.080;2022-09-24T18:10:27;6.37;;;3.60;;
63653;SDS011;49809;47.418;19.080;2022-09-24T18:13:52;5.57;;;3.65;;
63653;SDS011;49809;47.418;19.080;2022-09-24T18:16:59;3.97;;;2.85;;
63653;SDS011;49809;47.418;19.080;2022-09-24T18:20:03;5.80;;;2.95;;
63653;SDS011;49809;47.418;19.080;2022-09-24T18:23:11;5.87;;;3.05;;
63653;SDS011;49809;47.418;19.080;2022-09-24T18:26:18;3.92;;;2.53;;
63653;SDS011;49809;47.418;19.080;2022-09-24T18:29:24;4.93;;;2.92;;
63653;SDS011;49809;47.418;19.080;2022-09-24T18:32:30;3.90;;;3.03;;
63653;SDS011;49809;47.418;19.080;2022-09-24T18:35:33;5.95;;;3.05;;
63653;SDS011;49809;47.418;19.080;2022-09-24T18:39:01;5.25;;;3.10;;
63653;SDS011;49809;47.418;19.080;2022-09-24T18:42:35;7.07;;;3.72;;
63653;SDS011;49809;47.418;19.080;2022-09-24T18:45:38;7.07;;;3.80;;
63653;SDS011;49809;47.418;19.080;2022-09-24T18:48:45;6.68;;;3.70;;
63653;SDS011;49809;47.418;19.080;2022-09-24T18:52:00;6.78;;;3.72;;
63653;SDS011;49809;47.418;19.080;2022-09-24T18:55:03;6.60;;;3.05;;
63653;SDS011;49809;47.418;19.080;2022-09-24T18:58:08;5.22;;;3.10;;
63653;SDS011;49809;47.418;19.080;2022-09-24T19:01:34;5.93;;;3.25;;
63653;SDS011;49809;47.418;19.080;2022-09-24T19:04:59;7.40;;;2.85;;
63653;SDS011;49809;47.418;19.080;2022-09-24T19:08:05;5.90;;;3.35;;
63653;SDS011;49809;47.418;19.080;2022-09-24T19:11:10;4.40;;;2.95;;
63653;SDS011;49809;47.418;19.080;2022-09-24T19:14:18;5.80;;;3.37;;
63653;SDS011;49809;47.418;19.080;2022-09-24T19:17:42;6.10;;;3.25;;
63653;SDS011;49809;47.418;19.080;2022-09-24T19:20:51;9.20;;;4.00;;
63653;SDS011;49809;47.418;19.080;2022-09-24T19:24:19;9.77;;;5.43;;
63653;SDS011;49809;47.418;19.080;2022-09-24T19:27:22;9.85;;;5.80;;
63653;SDS011;49809;47.418;19.080;2022-09-24T19:30:30;12.20;;;5.50;;
63653;SDS011;49809;47.418;19.080;2022-09-24T19:33:40;12.13;;;6.45;;
63653;SDS011;49809;47.418;19.080;2022-09-24T19:36:43;10.32;;;6.07;;
63653;SDS011;49809;47.418;19.080;2022-09-24T19:39:50;9.35;;;4.82;;
63653;SDS011;49809;47.418;19.080;2022-09-24T19:42:57;10.30;;;5.57;;
63653;SDS011;49809;47.418;19.080;2022-09-24T19:46:27;9.02;;;4.95;;
63653;SDS011;49809;47.418;19.080;2022-09-24T19:49:34;6.18;;;4.55;;
63653;SDS011;49809;47.418;19.080;2022-09-24T19:52:37;8.25;;;4.97;;
63653;SDS011;49809;47.418;19.080;2022-09-24T19:55:40;6.28;;;4.32;;
63653;SDS011;49809;47.418;19.080;2022-09-24T19:58:45;7.35;;;4.55;;
63653;SDS011;49809;47.418;19.080;2022-09-24T20:01:51;8.60;;;4.70;;
63653;SDS011;49809;47.418;19.080;2022-09-24T20:05:01;5.32;;;3.55;;
63653;SDS011;49809;47.418;19.080;2022-09-24T20:08:29;7.43;;;4.60;;
63653;SDS011;49809;47.418;19.080;2022-09-24T20:11:39;10.13;;;5.07;;
63653;SDS011;49809;47.418;19.080;2022-09-24T20:14:44;9.43;;;5.10;;
63653;SDS011;49809;47.418;19.080;2022-09-24T20:17:50;9.80;;;5.18;;
63653;SDS011;49809;47.418;19.080;2022-09-24T20:20:53;6.00;;;4.40;;
63653;SDS011;49809;47.418;19.080;2022-09-24T20:23:56;7.35;;;4.40;;
63653;SDS011;49809;47.418;19.080;2022-09-24T20:27:05;7.93;;;4.28;;
63653;SDS011;49809;47.418;19.080;2022-09-24T20:30:26;7.32;;;5.18;;
63653;SDS011;49809;47.418;19.080;2022-09-24T20:33:33;10.35;;;4.78;;
63653;SDS011;49809;47.418;19.080;2022-09-24T20:36:38;7.28;;;4.28;;
63653;SDS011;49809;47.418;19.080;2022-09-24T20:39:43;7.50;;;4.32;;
63653;SDS011;49809;47.418;19.080;2022-09-24T20:42:47;9.35;;;4.93;;
63653;SDS011;49809;47.418;19.080;2022-09-24T20:45:50;8.80;;;5.35;;
63653;SDS011;49809;47.418;19.080;2022-09-24T20:48:55;6.05;;;4.07;;